createdAt,value
2022-09-04T00:02:12.327Z,101786.66
2022-09-04T00:05:12.101Z,101788.52
2022-09-04T00:08:25.793Z,101790.90
2022-09-04T00:10:56.753Z,101793.23
2022-09-04T00:13:41.973Z,101796.56
2022-09-04T00:16:17.331Z,101799.22
2022-09-04T00:19:02.328Z,101802.23
2022-09-04T00:21:56.609Z,101805.63
2022-09-04T00:24:55.434Z,101806.52
2022-09-04T00:27:30.774Z,101806.91
2022-09-04T00:30:05.422Z,101807.95
2022-09-04T00:32:49.544Z,101806.41
2022-09-04T00:35:51.672Z,101802.99
2022-09-04T00:39:00.636Z,101806.30
2022-09-04T00:41:58.493Z,101813.82
2022-09-04T00:44:52.570Z,101811.27
2022-09-04T00:47:51.425Z,101809.90
2022-09-04T00:51:15.783Z,101808.05
2022-09-04T00:54:10.509Z,101810.80
2022-09-04T00:57:35.148Z,101817.13
2022-09-04T01:00:15.976Z,101816.58
2022-09-04T01:03:01.602Z,101818.61
2022-09-04T01:05:47.343Z,101815.48
2022-09-04T01:08:56.405Z,101815.98
2022-09-04T01:11:43.947Z,101817.14
2022-09-04T01:14:49.117Z,101820.46
2022-09-04T01:17:43.990Z,101817.34
2022-09-04T01:21:15.451Z,101814.66
2022-09-04T01:23:48.838Z,101817.98
2022-09-04T01:26:48.563Z,101817.77
2022-09-04T01:29:24.101Z,101811.61
2022-09-04T01:32:07.230Z,101812.81
2022-09-04T01:34:48.869Z,101814.27
2022-09-04T01:38:22.546Z,101812.50
2022-09-04T01:41:11.421Z,101809.77
2022-09-04T01:43:40.144Z,101810.27
2022-09-04T01:46:35.366Z,101816.57
2022-09-04T01:49:35.670Z,101819.88
2022-09-04T01:52:36.250Z,101819.66
2022-09-04T01:55:36.541Z,101821.98
2022-09-04T01:58:09.853Z,101822.89
2022-09-04T02:00:49.362Z,101825.20
2022-09-04T02:03:51.026Z,101821.99
2022-09-04T02:06:51.383Z,101823.27
2022-09-04T02:09:50.494Z,101824.60
2022-09-04T02:12:33.985Z,101817.25
2022-09-04T02:16:14.364Z,101813.07
2022-09-04T02:19:09.859Z,101809.24
2022-09-04T02:21:44.622Z,101809.45
2022-09-04T02:24:26.019Z,101810.21
2022-09-04T02:27:20.587Z,101813.64
2022-09-04T02:30:10.050Z,101815.38
2022-09-04T02:33:20.496Z,101808.52
2022-09-04T02:36:51.514Z,101805.11
2022-09-04T02:40:18.040Z,101804.23
2022-09-04T02:43:28.475Z,101810.66
2022-09-04T02:46:49.331Z,101812.50
2022-09-04T02:49:48.170Z,101813.27
2022-09-04T02:53:18.278Z,101810.84
2022-09-04T02:56:31.970Z,101811.86
2022-09-04T02:59:29.418Z,101809.60
2022-09-04T03:02:06.443Z,101807.02
2022-09-04T03:04:41.604Z,101807.33
2022-09-04T03:07:23.853Z,101810.78
2022-09-04T03:10:18.198Z,101813.25
2022-09-04T03:12:52.588Z,101816.81
2022-09-04T03:15:50.850Z,101817.45
2022-09-04T03:18:36.262Z,101818.70
2022-09-04T03:21:19.184Z,101815.03
2022-09-04T03:23:55.837Z,101814.63
2022-09-04T03:26:32.232Z,101813.84
2022-09-04T03:29:11.559Z,101812.10
2022-09-04T03:32:31.975Z,101816.59
2022-09-04T03:35:54.621Z,101817.81
2022-09-04T03:38:48.594Z,101820.34
2022-09-04T03:41:34.284Z,101826.06
2022-09-04T03:44:52.287Z,101831.76
2022-09-04T03:47:52.474Z,101831.10
2022-09-04T03:50:58.086Z,101832.23
2022-09-04T03:53:34.429Z,101836.09
2022-09-04T03:56:55.672Z,101839.20
2022-09-04T04:00:08.713Z,101841.83
2022-09-04T04:03:14.091Z,101847.65
2022-09-04T04:06:23.034Z,101849.66
2022-09-04T04:09:24.608Z,101853.41
2022-09-04T04:12:16.139Z,101853.30
2022-09-04T04:14:56.778Z,101859.76
2022-09-04T04:17:42.980Z,101860.76
2022-09-04T04:20:45.902Z,101866.02
2022-09-04T04:23:36.005Z,101868.85
2022-09-04T04:26:21.655Z,101873.36
2022-09-04T04:29:15.675Z,101876.09
2022-09-04T04:32:11.196Z,101878.77
2022-09-04T04:35:03.161Z,101876.55
2022-09-04T04:37:49.993Z,101876.27
2022-09-04T04:40:51.248Z,101876.55
2022-09-04T04:43:43.389Z,101873.38
2022-09-04T04:46:26.730Z,101877.30
2022-09-04T04:49:33.865Z,101877.06
2022-09-04T04:52:21.076Z,101878.98
2022-09-04T04:55:21.002Z,101878.71
2022-09-04T04:58:00.376Z,101881.80
2022-09-04T05:01:09.022Z,101886.96
2022-09-04T05:04:29.709Z,101888.82
2022-09-04T05:07:10.131Z,101892.22
2022-09-04T05:09:53.323Z,101898.60
2022-09-04T05:12:51.689Z,101900.67
2022-09-04T05:16:07.950Z,101905.71
2022-09-04T05:18:48.068Z,101906.02
2022-09-04T05:21:47.266Z,101911.98
2022-09-04T05:24:48.521Z,101910.35
2022-09-04T05:27:45.765Z,101906.13
2022-09-04T05:30:32.586Z,101908.73
2022-09-04T05:34:08.468Z,101907.91
2022-09-04T05:36:51.382Z,101908.09
2022-09-04T05:40:14.923Z,101912.39
2022-09-04T05:43:19.780Z,101909.17
2022-09-04T05:45:53.049Z,101912.65
2022-09-04T05:49:01.420Z,101917.89
2022-09-04T05:52:09.791Z,101918.64
2022-09-04T05:55:21.455Z,101923.68
2022-09-04T05:58:28.082Z,101927.87
2022-09-04T06:01:28.380Z,101929.66
2022-09-04T06:04:50.413Z,101929.50
2022-09-04T06:07:34.203Z,101928.66
2022-09-04T06:10:46.002Z,101932.56
2022-09-04T06:13:28.722Z,101936.88
2022-09-04T06:16:02.416Z,101941.30
2022-09-04T06:19:00.843Z,101945.52
2022-09-04T06:21:31.314Z,101944.45
2022-09-04T06:25:09.384Z,101945.30
2022-09-04T06:28:05.839Z,101941.52
2022-09-04T06:31:12.399Z,101938.45
2022-09-04T06:34:04.136Z,101941.04
2022-09-04T06:37:10.486Z,101931.27
2022-09-04T06:40:33.338Z,101935.94
2022-09-04T06:43:41.304Z,101938.37
2022-09-04T06:46:38.618Z,101937.09
2022-09-04T06:49:47.677Z,101939.42
2022-09-04T06:52:55.473Z,101938.39
2022-09-04T06:56:23.650Z,101940.30
2022-09-04T06:59:44.664Z,101939.35
2022-09-04T07:02:37.018Z,101939.35
2022-09-04T07:05:24.950Z,101941.80
2022-09-04T07:08:24.228Z,101941.25
2022-09-04T07:11:37.141Z,101943.66
2022-09-04T07:14:38.284Z,101948.73
2022-09-04T07:17:17.730Z,101946.48
2022-09-04T07:20:07.189Z,101948.23
2022-09-04T07:23:04.624Z,101956.20
2022-09-04T07:26:10.920Z,101956.70
2022-09-04T07:29:26.110Z,101959.02
2022-09-04T07:32:17.529Z,101963.11
2022-09-04T07:34:52.757Z,101960.48
2022-09-04T07:37:58.122Z,101959.72
2022-09-04T07:40:47.011Z,101964.48
2022-09-04T07:43:43.612Z,101967.52
2022-09-04T07:46:32.769Z,101969.46
2022-09-04T07:49:09.821Z,101969.72
2022-09-04T07:51:54.784Z,101969.63
2022-09-04T07:55:02.905Z,101970.88
2022-09-04T07:58:03.770Z,101965.25
2022-09-04T08:00:48.398Z,101975.38
2022-09-04T08:04:01.200Z,101977.35
2022-09-04T08:07:11.404Z,101980.16
2022-09-04T08:10:12.579Z,101983.48
2022-09-04T08:12:49.063Z,101978.23
2022-09-04T08:15:23.234Z,101974.55
2022-09-04T08:18:15.617Z,101976.18
2022-09-04T08:21:11.963Z,101975.09
2022-09-04T08:24:28.100Z,101977.73
2022-09-04T08:27:36.059Z,101977.55
2022-09-04T08:30:14.764Z,101983.66
2022-09-04T08:33:03.436Z,101982.96
2022-09-04T08:35:55.737Z,101977.16
2022-09-04T08:39:04.612Z,101974.52
2022-09-04T08:42:05.426Z,101973.10
2022-09-04T08:45:30.238Z,101973.27
2022-09-04T08:48:35.391Z,101970.71
2022-09-04T08:51:36.585Z,101967.27
2022-09-04T08:54:25.852Z,101962.30
2022-09-04T08:57:41.340Z,101963.66
2022-09-04T09:00:40.464Z,101961.45
2022-09-04T09:03:47.151Z,101959.48
2022-09-04T09:06:39.270Z,101952.95
2022-09-04T09:09:44.308Z,101956.23
2022-09-04T09:12:58.485Z,101954.42
2022-09-04T09:15:59.673Z,101953.70
2022-09-04T09:18:57.550Z,101950.17
2022-09-04T09:21:49.015Z,101950.80
2022-09-04T09:24:53.794Z,101947.71
2022-09-04T09:27:33.581Z,101946.20
2022-09-04T09:30:08.946Z,101950.26
2022-09-04T09:33:04.089Z,101944.46
2022-09-04T09:35:41.642Z,101945.23
2022-09-04T09:38:36.225Z,101945.39
2022-09-04T09:41:09.421Z,101949.93
2022-09-04T09:44:33.187Z,101946.29
2022-09-04T09:47:57.659Z,101948.63
2022-09-04T09:51:12.868Z,101943.26
2022-09-04T09:54:10.102Z,101937.04
2022-09-04T09:57:13.388Z,101935.11
2022-09-04T10:00:05.628Z,101940.70
2022-09-04T10:02:54.124Z,101935.94
2022-09-04T10:05:40.173Z,101935.71
2022-09-04T10:08:35.584Z,101933.52
2022-09-04T10:11:28.510Z,101930.31
2022-09-04T10:14:36.571Z,101928.71
2022-09-04T10:17:28.261Z,101930.52
2022-09-04T10:20:28.588Z,101926.98
2022-09-04T10:23:05.379Z,101933.07
2022-09-04T10:25:54.628Z,101935.08
2022-09-04T10:29:09.731Z,101935.55
2022-09-04T10:31:46.282Z,101936.66
2022-09-04T10:34:34.496Z,101934.39
2022-09-04T10:37:26.136Z,101931.79
2022-09-04T10:40:39.712Z,101932.98
2022-09-04T10:43:42.653Z,101927.86
2022-09-04T10:46:20.691Z,101927.95
2022-09-04T10:49:19.802Z,101927.36
2022-09-04T10:52:37.307Z,101925.36
2022-09-04T10:55:43.617Z,101931.96
2022-09-04T10:58:29.855Z,101931.20
2022-09-04T11:01:31.968Z,101930.69
2022-09-04T11:04:13.597Z,101926.46
2022-09-04T11:07:22.174Z,101923.48
2022-09-04T11:10:20.272Z,101918.42
2022-09-04T11:13:30.601Z,101917.94
2022-09-04T11:16:32.264Z,101907.14
2022-09-04T11:19:51.629Z,101911.30
2022-09-04T11:23:09.573Z,101912.04
2022-09-04T11:26:05.494Z,101910.66
2022-09-04T11:28:52.665Z,101910.59
2022-09-04T11:31:48.883Z,101904.88
2022-09-04T11:34:58.740Z,101908.70
2022-09-04T11:38:00.246Z,101904.20
2022-09-04T11:41:07.382Z,101898.95
2022-09-04T11:44:33.423Z,101904.31
2022-09-04T11:47:20.463Z,101907.59
2022-09-04T11:50:26.379Z,101903.02
2022-09-04T11:53:13.614Z,101899.92
2022-09-04T11:56:20.520Z,101892.09
2022-09-04T11:59:45.489Z,101896.52
2022-09-04T12:02:59.686Z,101895.61
2022-09-04T12:06:46.274Z,101904.16
2022-09-04T12:09:44.604Z,101900.65
2022-09-04T12:12:47.211Z,101896.36
2022-09-04T12:15:44.421Z,101901.59
2022-09-04T12:18:54.327Z,101900.58
2022-09-04T12:22:01.157Z,101903.77
2022-09-04T12:25:06.358Z,101901.72
2022-09-04T12:28:41.395Z,101894.11
2022-09-04T12:31:54.163Z,101903.82
2022-09-04T12:35:04.197Z,101893.92
2022-09-04T12:38:08.423Z,101866.91
2022-09-04T12:41:19.356Z,101880.82
2022-09-04T12:44:08.717Z,101870.67
2022-09-04T12:47:05.488Z,101886.05
2022-09-04T12:50:22.202Z,101890.15
2022-09-04T12:53:48.184Z,101884.86
2022-09-04T12:56:29.886Z,101891.78
2022-09-04T12:59:16.207Z,101887.98
2022-09-04T13:01:59.058Z,101884.73
2022-09-04T13:05:28.365Z,101881.42
2022-09-04T13:08:18.651Z,101873.48
2022-09-04T13:11:18.930Z,101870.25
2022-09-04T13:14:10.837Z,101874.68
2022-09-04T13:16:54.853Z,101880.64
2022-09-04T13:20:00.334Z,101884.77
2022-09-04T13:22:57.874Z,101882.42
2022-09-04T13:25:35.854Z,101881.08
2022-09-04T13:28:35.716Z,101878.73
2022-09-04T13:31:50.403Z,101875.95
2022-09-04T13:34:52.576Z,101877.52
2022-09-04T13:38:16.637Z,101883.31
2022-09-04T13:40:59.987Z,101878.91
2022-09-04T13:43:55.570Z,101873.89
2022-09-04T13:46:37.696Z,101878.45
2022-09-04T13:49:35.596Z,101878.17
2022-09-04T13:52:16.857Z,101877.72
2022-09-04T13:54:52.327Z,101875.75
2022-09-04T13:57:30.042Z,101874.14
2022-09-04T14:00:03.828Z,101875.40
2022-09-04T14:02:34.257Z,101878.02
2022-09-04T14:05:13.017Z,101882.30
2022-09-04T14:07:48.558Z,101884.02
2022-09-04T14:11:16.998Z,101884.33
2022-09-04T14:14:23.091Z,101885.05
2022-09-04T14:16:54.460Z,101881.63
2022-09-04T14:19:35.665Z,101884.39
2022-09-04T14:22:33.689Z,101883.56
2022-09-04T14:28:45.201Z,101877.04
2022-09-04T14:30:29.445Z,101881.73
2022-09-04T14:31:46.476Z,101881.21
2022-09-04T14:34:27.362Z,101878.73
2022-09-04T14:37:13.195Z,101876.29
2022-09-04T14:40:25.430Z,101869.19
2022-09-04T14:43:24.707Z,101878.52
2022-09-04T14:46:42.853Z,101881.95
2022-09-04T14:49:21.300Z,101879.15
2022-09-04T14:51:56.167Z,101875.18
2022-09-04T14:54:29.516Z,101871.92
2022-09-04T14:57:28.906Z,101870.88
2022-09-04T15:00:10.699Z,101873.10
2022-09-04T15:03:12.078Z,101874.45
2022-09-04T15:06:27.219Z,101872.69
2022-09-04T15:09:16.743Z,101869.23
2022-09-04T15:11:45.853Z,101869.64
2022-09-04T15:14:33.924Z,101867.86
2022-09-04T15:17:26.259Z,101867.14
2022-09-04T15:20:13.177Z,101866.27
2022-09-04T15:23:01.452Z,101865.59
2022-09-04T15:26:00.863Z,101863.02
2022-09-04T15:28:44.336Z,101862.14
2022-09-04T15:31:31.414Z,101858.57
2022-09-04T15:34:06.367Z,101861.98
2022-09-04T15:36:38.765Z,101866.19
2022-09-04T15:39:18.328Z,101868.23
2022-09-04T15:41:49.547Z,101865.10
2022-09-04T15:44:43.078Z,101861.48
2022-09-04T15:47:58.498Z,101861.69
2022-09-04T15:50:31.055Z,101868.41
2022-09-04T15:53:14.675Z,101872.08
2022-09-04T15:55:44.136Z,101874.51
2022-09-04T15:58:32.078Z,101872.89
2022-09-04T16:01:08.927Z,101874.45
2022-09-04T16:03:46.860Z,101873.48
2022-09-04T16:06:45.202Z,101873.12
2022-09-04T16:09:20.941Z,101874.63
2022-09-04T16:12:12.346Z,101874.41
2022-09-04T16:14:53.285Z,101877.54
2022-09-04T16:17:28.152Z,101876.74
2022-09-04T16:20:14.694Z,101877.17
2022-09-04T16:22:48.703Z,101876.79
2022-09-04T16:25:19.252Z,101880.17
2022-09-04T16:28:07.627Z,101885.65
2022-09-04T16:30:55.616Z,101887.12
2022-09-04T16:33:50.577Z,101884.34
2022-09-04T16:36:25.160Z,101883.75
2022-09-04T16:39:13.916Z,101890.23
2022-09-04T16:42:11.872Z,101893.27
2022-09-04T16:44:47.873Z,101891.42
2022-09-04T16:47:35.952Z,101890.09
2022-09-04T16:50:18.664Z,101888.08
2022-09-04T16:53:13.905Z,101891.17
2022-09-04T16:55:49.719Z,101887.66
2022-09-04T16:58:29.946Z,101890.30
2022-09-04T17:01:25.350Z,101896.17
2022-09-04T17:04:16.970Z,101902.84
2022-09-04T17:06:53.830Z,101907.13
2022-09-04T17:09:38.195Z,101913.16
2022-09-04T17:12:47.476Z,101918.34
2022-09-04T17:15:57.677Z,101921.55
2022-09-04T17:18:27.224Z,101930.61
2022-09-04T17:26:28.097Z,101936.72
2022-09-04T17:29:02.192Z,101938.33
2022-09-04T17:29:22.447Z,101937.93
2022-09-04T17:31:34.575Z,101939.55
2022-09-04T17:40:32.264Z,101943.24
2022-09-04T17:40:36.610Z,101946.37
2022-09-04T17:41:36.267Z,101946.96
2022-09-04T17:44:49.504Z,101954.48
2022-09-04T17:47:45.954Z,101959.54
2022-09-04T17:50:25.169Z,101947.06
2022-09-04T17:53:17.715Z,101959.35
2022-09-04T17:56:51.728Z,101957.67
2022-09-04T17:59:45.820Z,101962.16
2022-09-04T18:02:48.331Z,101960.65
2022-09-04T18:05:53.529Z,101973.19
2022-09-04T18:08:55.870Z,101973.19
2022-09-04T18:11:29.997Z,101971.39
2022-09-04T18:14:26.132Z,101969.98
2022-09-04T18:17:25.725Z,101972.24
2022-09-04T18:20:37.851Z,101954.42
2022-09-04T18:23:46.400Z,101968.67
2022-09-04T18:26:53.861Z,101975.30
2022-09-04T18:32:55.697Z,101978.06
2022-09-04T18:37:11.744Z,101983.71
2022-09-04T18:37:19.449Z,101979.97
2022-09-04T18:39:35.927Z,101979.95
2022-09-04T18:50:22.853Z,101979.21
2022-09-04T18:50:38.911Z,101973.34
2022-09-04T18:50:45.517Z,101991.69
2022-09-04T18:51:51.412Z,101985.16
2022-09-04T18:54:41.479Z,101990.88
2022-09-04T18:57:49.141Z,101983.38
2022-09-04T19:01:03.789Z,101997.60
2022-09-04T19:04:00.948Z,101994.61
2022-09-04T19:07:06.872Z,101992.52
2022-09-04T19:10:02.213Z,101992.85
2022-09-04T19:16:22.039Z,101993.19
2022-09-04T19:19:52.373Z,101987.45
2022-09-04T19:23:06.212Z,101993.02
2022-09-04T19:26:34.735Z,101981.89
2022-09-04T19:29:44.001Z,101984.16
2022-09-04T19:32:37.787Z,101982.58
2022-09-04T19:35:19.694Z,101978.19
2022-09-04T19:43:27.342Z,101977.99
2022-09-04T19:46:01.158Z,101975.45
2022-09-04T19:46:13.317Z,101975.38
2022-09-04T19:53:17.607Z,101981.52
2022-09-04T19:53:30.811Z,101981.73
2022-09-04T19:56:29.277Z,101986.33
2022-09-04T19:59:12.745Z,101984.30
2022-09-04T20:02:03.088Z,101986.54
2022-09-04T20:05:07.141Z,101989.27
2022-09-04T20:08:26.204Z,101983.42
2022-09-04T20:11:36.299Z,101990.14
2022-09-04T20:14:38.283Z,101996.48
2022-09-04T20:17:38.752Z,102002.42
2022-09-04T20:20:23.409Z,102005.60
2022-09-04T20:23:43.845Z,102007.38
2022-09-04T20:26:31.994Z,101998.15
2022-09-04T20:29:54.658Z,102003.42
2022-09-04T20:32:28.691Z,102004.28
2022-09-04T20:35:13.651Z,102008.27
2022-09-04T20:38:03.107Z,102011.33
2022-09-04T20:40:41.970Z,102016.27
2022-09-04T20:43:36.094Z,102016.61
2022-09-04T20:49:16.636Z,102012.10
2022-09-04T20:52:55.268Z,102011.01
2022-09-04T20:53:05.798Z,102011.77
2022-09-04T20:55:19.463Z,102015.08
2022-09-04T21:03:13.104Z,102015.02
2022-09-04T21:03:24.516Z,102013.23
2022-09-04T21:05:46.722Z,102017.00
2022-09-04T21:08:24.123Z,102020.47
2022-09-04T21:11:38.782Z,102015.87
2022-09-04T21:14:01.143Z,102017.59
2022-09-04T21:17:27.505Z,102017.05
2022-09-04T21:20:13.694Z,102024.05
2022-09-04T21:22:50.063Z,102025.45
2022-09-04T21:25:54.532Z,102022.41
2022-09-04T21:29:10.700Z,102016.63
2022-09-04T21:32:27.313Z,102018.92
2022-09-04T21:35:09.119Z,102015.81
2022-09-04T21:37:40.042Z,102015.48
2022-09-04T21:40:49.883Z,102015.70
2022-09-04T21:43:50.248Z,102017.38
2022-09-04T21:46:32.704Z,102019.80
2022-09-04T21:49:09.813Z,102018.03
2022-09-04T21:51:47.322Z,102016.71
2022-09-04T21:57:08.937Z,102018.64
2022-09-04T22:02:36.517Z,102024.06
2022-09-04T22:02:39.337Z,102025.77
2022-09-04T22:05:09.259Z,102029.33
2022-09-04T22:13:28.896Z,102028.59
2022-09-04T22:13:39.420Z,102027.92
2022-09-04T22:14:35.237Z,102027.06
2022-09-04T22:17:22.724Z,102027.91
2022-09-04T22:20:28.019Z,102032.52
2022-09-04T22:23:29.554Z,102031.34
2022-09-04T22:26:30.371Z,102029.61
2022-09-04T22:29:40.128Z,102035.48
2022-09-04T22:32:20.465Z,102032.70
2022-09-04T22:35:36.195Z,102035.52
2022-09-04T22:38:54.228Z,102030.52
2022-09-04T22:42:09.900Z,102030.63
2022-09-04T22:44:50.441Z,102027.53
2022-09-04T22:47:27.114Z,102023.60
2022-09-04T22:50:50.423Z,102027.91
2022-09-04T22:53:51.784Z,102025.86
2022-09-04T22:56:40.196Z,102030.00
2022-09-04T22:59:27.626Z,102027.75
2022-09-04T23:03:07.101Z,102031.57
2022-09-04T23:06:18.917Z,102031.91
2022-09-04T23:13:44.861Z,102030.83
2022-09-04T23:13:59.885Z,102030.23
2022-09-04T23:15:48.745Z,102029.06
2022-09-04T23:20:50.189Z,102030.55
2022-09-04T23:26:47.558Z,102028.73
2022-09-04T23:26:49.806Z,102031.80
2022-09-04T23:28:34.701Z,102032.93
2022-09-04T23:31:53.075Z,102033.70
2022-09-04T23:35:26.880Z,102032.36
2022-09-04T23:39:03.141Z,102034.84
2022-09-04T23:42:11.180Z,102034.27
2022-09-04T23:45:02.338Z,102039.56
2022-09-04T23:48:09.371Z,102037.77
2022-09-04T23:51:25.878Z,102039.02
2022-09-04T23:54:25.232Z,102040.33
2022-09-04T23:57:26.505Z,102036.27
